sensor_id;sensor_type;location;lat;lon;timestamp;P1;durP1;ratioP1;P2;durP2;ratioP2
63046;SDS011;62025;39.238;9.126;2022-12-07T00:01:20;26.15;;;13.82;;
63046;SDS011;62025;39.238;9.126;2022-12-07T00:03:50;22.60;;;14.30;;
63046;SDS011;62025;39.238;9.126;2022-12-07T00:08:45;23.08;;;13.95;;
63046;SDS011;62025;39.238;9.126;2022-12-07T00:11:13;21.98;;;14.00;;
63046;SDS011;62025;39.238;9.126;2022-12-07T00:13:43;22.83;;;13.93;;
63046;SDS011;62025;39.238;9.126;2022-12-07T00:16:11;24.00;;;14.20;;
63046;SDS011;62025;39.238;9.126;2022-12-07T00:18:42;25.63;;;15.32;;
63046;SDS011;62025;39.238;9.126;2022-12-07T00:21:10;22.95;;;14.38;;
63046;SDS011;62025;39.238;9.126;2022-12-07T00:23:38;23.35;;;13.68;;
63046;SDS011;62025;39.238;9.126;2022-12-07T00:26:06;24.88;;;13.77;;
63046;SDS011;62025;39.238;9.126;2022-12-07T00:28:35;24.40;;;13.80;;
63046;SDS011;62025;39.238;9.126;2022-12-07T00:31:02;22.05;;;13.68;;
63046;SDS011;62025;39.238;9.126;2022-12-07T00:33:31;22.33;;;13.30;;
63046;SDS011;62025;39.238;9.126;2022-12-07T00:35:58;21.90;;;11.75;;
63046;SDS011;62025;39.238;9.126;2022-12-07T00:38:26;18.48;;;11.20;;
63046;SDS011;62025;39.238;9.126;2022-12-07T00:40:55;20.00;;;11.30;;
63046;SDS011;62025;39.238;9.126;2022-12-07T00:43:27;16.10;;;10.45;;
63046;SDS011;62025;39.238;9.126;2022-12-07T00:45:53;17.58;;;10.00;;
63046;SDS011;62025;39.238;9.126;2022-12-07T00:48:20;17.45;;;9.82;;
63046;SDS011;62025;39.238;9.126;2022-12-07T00:50:47;17.08;;;10.57;;
63046;SDS011;62025;39.238;9.126;2022-12-07T00:53:13;16.58;;;9.38;;
63046;SDS011;62025;39.238;9.126;2022-12-07T00:55:40;15.05;;;9.05;;
63046;SDS011;62025;39.238;9.126;2022-12-07T00:58:06;15.25;;;8.65;;
63046;SDS011;62025;39.238;9.126;2022-12-07T01:00:32;17.73;;;8.43;;
63046;SDS011;62025;39.238;9.126;2022-12-07T01:02:59;15.25;;;8.50;;
63046;SDS011;62025;39.238;9.126;2022-12-07T01:05:25;15.27;;;9.10;;
63046;SDS011;62025;39.238;9.126;2022-12-07T01:07:51;13.70;;;8.10;;
63046;SDS011;62025;39.238;9.126;2022-12-07T01:10:17;13.43;;;7.90;;
63046;SDS011;62025;39.238;9.126;2022-12-07T01:12:43;15.00;;;7.60;;
63046;SDS011;62025;39.238;9.126;2022-12-07T01:15:09;10.60;;;7.47;;
63046;SDS011;62025;39.238;9.126;2022-12-07T01:17:36;13.82;;;7.68;;
63046;SDS011;62025;39.238;9.126;2022-12-07T01:20:02;12.93;;;7.93;;
63046;SDS011;62025;39.238;9.126;2022-12-07T01:22:29;12.82;;;7.25;;
63046;SDS011;62025;39.238;9.126;2022-12-07T01:24:55;12.00;;;6.75;;
63046;SDS011;62025;39.238;9.126;2022-12-07T01:27:21;12.15;;;6.55;;
63046;SDS011;62025;39.238;9.126;2022-12-07T01:29:47;12.93;;;6.50;;
63046;SDS011;62025;39.238;9.126;2022-12-07T01:32:13;10.30;;;5.20;;
63046;SDS011;62025;39.238;9.126;2022-12-07T01:34:39;9.15;;;5.30;;
63046;SDS011;62025;39.238;9.126;2022-12-07T01:37:05;8.95;;;5.25;;
63046;SDS011;62025;39.238;9.126;2022-12-07T01:39:31;10.65;;;5.28;;
63046;SDS011;62025;39.238;9.126;2022-12-07T01:41:57;19.55;;;7.60;;
63046;SDS011;62025;39.238;9.126;2022-12-07T01:44:23;12.38;;;6.38;;
63046;SDS011;62025;39.238;9.126;2022-12-07T01:46:59;17.40;;;6.60;;
63046;SDS011;62025;39.238;9.126;2022-12-07T01:49:41;10.30;;;6.07;;
63046;SDS011;62025;39.238;9.126;2022-12-07T01:54:50;10.33;;;5.33;;
63046;SDS011;62025;39.238;9.126;2022-12-07T01:57:20;11.18;;;5.25;;
63046;SDS011;62025;39.238;9.126;2022-12-07T01:59:47;10.10;;;5.15;;
63046;SDS011;62025;39.238;9.126;2022-12-07T02:02:19;8.55;;;4.82;;
63046;SDS011;62025;39.238;9.126;2022-12-07T02:04:51;6.47;;;4.38;;
63046;SDS011;62025;39.238;9.126;2022-12-07T02:07:19;11.38;;;4.97;;
63046;SDS011;62025;39.238;9.126;2022-12-07T02:09:46;9.82;;;4.43;;
63046;SDS011;62025;39.238;9.126;2022-12-07T02:12:11;5.80;;;3.42;;
63046;SDS011;62025;39.238;9.126;2022-12-07T02:14:37;6.05;;;3.50;;
63046;SDS011;62025;39.238;9.126;2022-12-07T02:25:38;4.63;;;3.17;;
63046;SDS011;62025;39.238;9.126;2022-12-07T02:28:37;7.95;;;3.28;;
63046;SDS011;62025;39.238;9.126;2022-12-07T02:31:31;7.63;;;4.53;;
63046;SDS011;62025;39.238;9.126;2022-12-07T02:34:07;6.07;;;3.40;;
63046;SDS011;62025;39.238;9.126;2022-12-07T02:36:46;11.18;;;3.30;;
63046;SDS011;62025;39.238;9.126;2022-12-07T02:39:24;5.30;;;2.78;;
63046;SDS011;62025;39.238;9.126;2022-12-07T02:41:57;6.78;;;3.03;;
63046;SDS011;62025;39.238;9.126;2022-12-07T02:44:34;11.73;;;3.20;;
63046;SDS011;62025;39.238;9.126;2022-12-07T02:47:03;5.57;;;2.90;;
63046;SDS011;62025;39.238;9.126;2022-12-07T02:49:32;6.20;;;3.03;;
63046;SDS011;62025;39.238;9.126;2022-12-07T02:51:59;7.38;;;3.90;;
63046;SDS011;62025;39.238;9.126;2022-12-07T02:54:25;6.78;;;2.63;;
63046;SDS011;62025;39.238;9.126;2022-12-07T03:14:09;7.50;;;2.72;;
63046;SDS011;62025;39.238;9.126;2022-12-07T03:16:22;9.30;;;2.60;;
63046;SDS011;62025;39.238;9.126;2022-12-07T03:19:04;7.82;;;2.90;;
63046;SDS011;62025;39.238;9.126;2022-12-07T03:22:00;7.28;;;3.35;;
63046;SDS011;62025;39.238;9.126;2022-12-07T03:24:33;6.65;;;3.00;;
63046;SDS011;62025;39.238;9.126;2022-12-07T03:27:31;3.85;;;2.70;;
63046;SDS011;62025;39.238;9.126;2022-12-07T03:30:07;7.60;;;3.03;;
63046;SDS011;62025;39.238;9.126;2022-12-07T03:33:29;7.07;;;2.95;;
63046;SDS011;62025;39.238;9.126;2022-12-07T03:35:37;7.82;;;3.00;;
63046;SDS011;62025;39.238;9.126;2022-12-07T03:38:31;11.73;;;3.20;;
63046;SDS011;62025;39.238;9.126;2022-12-07T03:41:30;8.23;;;2.60;;
63046;SDS011;62025;39.238;9.126;2022-12-07T03:43:59;6.95;;;2.60;;
63046;SDS011;62025;39.238;9.126;2022-12-07T03:49:27;10.75;;;2.60;;
63046;SDS011;62025;39.238;9.126;2022-12-07T03:52:03;5.28;;;2.30;;
63046;SDS011;62025;39.238;9.126;2022-12-07T03:55:05;6.65;;;2.70;;
63046;SDS011;62025;39.238;9.126;2022-12-07T03:57:56;7.90;;;2.47;;
63046;SDS011;62025;39.238;9.126;2022-12-07T04:00:28;5.03;;;2.90;;
63046;SDS011;62025;39.238;9.126;2022-12-07T04:02:56;6.97;;;2.60;;
63046;SDS011;62025;39.238;9.126;2022-12-07T04:05:22;4.95;;;2.70;;
63046;SDS011;62025;39.238;9.126;2022-12-07T04:07:49;9.80;;;2.83;;
63046;SDS011;62025;39.238;9.126;2022-12-07T04:10:15;10.13;;;3.30;;
63046;SDS011;62025;39.238;9.126;2022-12-07T04:12:41;6.40;;;3.65;;
63046;SDS011;62025;39.238;9.126;2022-12-07T04:15:07;11.02;;;3.75;;
63046;SDS011;62025;39.238;9.126;2022-12-07T04:17:33;7.72;;;4.15;;
63046;SDS011;62025;39.238;9.126;2022-12-07T04:19:59;8.25;;;3.85;;
63046;SDS011;62025;39.238;9.126;2022-12-07T04:22:26;6.82;;;4.50;;
63046;SDS011;62025;39.238;9.126;2022-12-07T04:24:52;9.23;;;5.00;;
63046;SDS011;62025;39.238;9.126;2022-12-07T04:27:18;13.52;;;5.20;;
63046;SDS011;62025;39.238;9.126;2022-12-07T04:29:44;7.88;;;4.55;;
63046;SDS011;62025;39.238;9.126;2022-12-07T04:32:10;11.38;;;4.55;;
63046;SDS011;62025;39.238;9.126;2022-12-07T04:34:36;9.18;;;4.43;;
63046;SDS011;62025;39.238;9.126;2022-12-07T04:37:02;8.40;;;4.15;;
63046;SDS011;62025;39.238;9.126;2022-12-07T04:39:28;12.77;;;4.50;;
63046;SDS011;62025;39.238;9.126;2022-12-07T04:41:57;8.52;;;4.40;;
63046;SDS011;62025;39.238;9.126;2022-12-07T04:44:24;6.95;;;4.45;;
63046;SDS011;62025;39.238;9.126;2022-12-07T04:46:52;8.30;;;4.68;;
63046;SDS011;62025;39.238;9.126;2022-12-07T04:49:18;8.30;;;4.70;;
63046;SDS011;62025;39.238;9.126;2022-12-07T04:51:45;9.52;;;4.60;;
63046;SDS011;62025;39.238;9.126;2022-12-07T04:54:12;9.80;;;4.80;;
63046;SDS011;62025;39.238;9.126;2022-12-07T04:56:39;11.45;;;4.47;;
63046;SDS011;62025;39.238;9.126;2022-12-07T04:59:05;5.93;;;4.03;;
63046;SDS011;62025;39.238;9.126;2022-12-07T05:01:32;11.35;;;4.00;;
63046;SDS011;62025;39.238;9.126;2022-12-07T05:03:59;9.27;;;3.97;;
63046;SDS011;62025;39.238;9.126;2022-12-07T05:06:25;11.30;;;4.32;;
63046;SDS011;62025;39.238;9.126;2022-12-07T05:08:51;7.82;;;4.22;;
63046;SDS011;62025;39.238;9.126;2022-12-07T05:11:17;7.90;;;3.42;;
63046;SDS011;62025;39.238;9.126;2022-12-07T05:14:02;6.10;;;3.25;;
63046;SDS011;62025;39.238;9.126;2022-12-07T05:16:36;8.40;;;3.28;;
63046;SDS011;62025;39.238;9.126;2022-12-07T05:19:03;8.52;;;3.28;;
63046;SDS011;62025;39.238;9.126;2022-12-07T05:21:29;6.28;;;3.60;;
63046;SDS011;62025;39.238;9.126;2022-12-07T05:23:55;5.13;;;3.38;;
63046;SDS011;62025;39.238;9.126;2022-12-07T05:26:21;5.32;;;3.33;;
63046;SDS011;62025;39.238;9.126;2022-12-07T05:28:51;11.60;;;4.50;;
63046;SDS011;62025;39.238;9.126;2022-12-07T05:31:19;6.18;;;3.90;;
63046;SDS011;62025;39.238;9.126;2022-12-07T05:33:45;9.00;;;4.30;;
63046;SDS011;62025;39.238;9.126;2022-12-07T05:36:12;7.25;;;3.65;;
63046;SDS011;62025;39.238;9.126;2022-12-07T05:38:38;5.88;;;4.03;;
63046;SDS011;62025;39.238;9.126;2022-12-07T05:41:04;6.22;;;3.75;;
63046;SDS011;62025;39.238;9.126;2022-12-07T05:43:32;8.20;;;4.13;;
63046;SDS011;62025;39.238;9.126;2022-12-07T05:45:58;5.28;;;3.47;;
63046;SDS011;62025;39.238;9.126;2022-12-07T05:48:25;8.32;;;4.05;;
63046;SDS011;62025;39.238;9.126;2022-12-07T05:50:51;6.38;;;3.95;;
63046;SDS011;62025;39.238;9.126;2022-12-07T05:53:18;12.13;;;3.85;;
63046;SDS011;62025;39.238;9.126;2022-12-07T05:55:44;7.65;;;4.55;;
63046;SDS011;62025;39.238;9.126;2022-12-07T05:58:10;10.32;;;4.60;;
63046;SDS011;62025;39.238;9.126;2022-12-07T06:00:55;7.70;;;4.63;;
63046;SDS011;62025;39.238;9.126;2022-12-07T06:03:22;8.32;;;4.45;;
63046;SDS011;62025;39.238;9.126;2022-12-07T06:05:48;9.02;;;4.70;;
63046;SDS011;62025;39.238;9.126;2022-12-07T06:08:14;7.35;;;4.60;;
63046;SDS011;62025;39.238;9.126;2022-12-07T06:10:40;6.60;;;4.03;;
63046;SDS011;62025;39.238;9.126;2022-12-07T06:13:07;7.65;;;3.95;;
63046;SDS011;62025;39.238;9.126;2022-12-07T06:15:37;4.75;;;3.38;;
63046;SDS011;62025;39.238;9.126;2022-12-07T06:18:03;6.95;;;3.83;;
63046;SDS011;62025;39.238;9.126;2022-12-07T06:20:29;7.85;;;3.92;;
63046;SDS011;62025;39.238;9.126;2022-12-07T06:22:55;13.80;;;5.78;;
63046;SDS011;62025;39.238;9.126;2022-12-07T06:25:21;8.52;;;3.97;;
63046;SDS011;62025;39.238;9.126;2022-12-07T06:27:47;9.90;;;3.80;;
63046;SDS011;62025;39.238;9.126;2022-12-07T06:30:13;6.63;;;3.83;;
63046;SDS011;62025;39.238;9.126;2022-12-07T06:32:39;10.10;;;3.55;;
63046;SDS011;62025;39.238;9.126;2022-12-07T06:35:05;13.43;;;4.97;;
63046;SDS011;62025;39.238;9.126;2022-12-07T06:37:32;8.23;;;3.80;;
63046;SDS011;62025;39.238;9.126;2022-12-07T06:39:58;7.70;;;3.70;;
63046;SDS011;62025;39.238;9.126;2022-12-07T06:42:24;8.05;;;3.47;;
63046;SDS011;62025;39.238;9.126;2022-12-07T06:44:50;7.82;;;3.67;;
63046;SDS011;62025;39.238;9.126;2022-12-07T06:47:16;12.52;;;4.03;;
63046;SDS011;62025;39.238;9.126;2022-12-07T06:49:42;6.55;;;3.50;;
63046;SDS011;62025;39.238;9.126;2022-12-07T06:52:08;8.27;;;4.18;;
63046;SDS011;62025;39.238;9.126;2022-12-07T06:54:34;7.13;;;3.60;;
63046;SDS011;62025;39.238;9.126;2022-12-07T06:57:00;9.73;;;3.67;;
63046;SDS011;62025;39.238;9.126;2022-12-07T06:59:26;9.80;;;3.80;;
63046;SDS011;62025;39.238;9.126;2022-12-07T07:01:52;8.88;;;3.70;;
63046;SDS011;62025;39.238;9.126;2022-12-07T07:04:18;8.70;;;3.90;;
63046;SDS011;62025;39.238;9.126;2022-12-07T07:06:44;8.27;;;3.95;;
63046;SDS011;62025;39.238;9.126;2022-12-07T07:09:09;9.50;;;3.63;;
63046;SDS011;62025;39.238;9.126;2022-12-07T07:11:35;12.50;;;4.80;;
63046;SDS011;62025;39.238;9.126;2022-12-07T07:14:01;10.13;;;4.10;;
63046;SDS011;62025;39.238;9.126;2022-12-07T07:16:30;17.13;;;4.50;;
63046;SDS011;62025;39.238;9.126;2022-12-07T07:21:22;8.15;;;4.45;;
63046;SDS011;62025;39.238;9.126;2022-12-07T07:23:48;8.25;;;4.57;;
63046;SDS011;62025;39.238;9.126;2022-12-07T07:26:14;8.23;;;4.32;;
63046;SDS011;62025;39.238;9.126;2022-12-07T07:28:40;9.90;;;4.50;;
63046;SDS011;62025;39.238;9.126;2022-12-07T07:31:06;9.65;;;4.45;;
63046;SDS011;62025;39.238;9.126;2022-12-07T07:33:32;10.23;;;4.72;;
63046;SDS011;62025;39.238;9.126;2022-12-07T07:35:58;13.52;;;5.80;;
63046;SDS011;62025;39.238;9.126;2022-12-07T07:38:24;17.30;;;6.30;;
63046;SDS011;62025;39.238;9.126;2022-12-07T07:40:50;12.40;;;6.40;;
63046;SDS011;62025;39.238;9.126;2022-12-07T07:43:16;16.55;;;6.72;;
63046;SDS011;62025;39.238;9.126;2022-12-07T07:45:42;11.63;;;6.95;;
63046;SDS011;62025;39.238;9.126;2022-12-07T07:48:09;17.65;;;7.30;;
63046;SDS011;62025;39.238;9.126;2022-12-07T07:50:35;13.73;;;7.20;;
63046;SDS011;62025;39.238;9.126;2022-12-07T07:53:01;13.93;;;7.38;;
63046;SDS011;62025;39.238;9.126;2022-12-07T07:55:27;11.40;;;6.72;;
63046;SDS011;62025;39.238;9.126;2022-12-07T07:57:53;14.80;;;7.20;;
63046;SDS011;62025;39.238;9.126;2022-12-07T08:00:20;14.75;;;7.65;;
63046;SDS011;62025;39.238;9.126;2022-12-07T08:02:46;24.70;;;7.88;;
63046;SDS011;62025;39.238;9.126;2022-12-07T08:05:13;13.60;;;7.50;;
63046;SDS011;62025;39.238;9.126;2022-12-07T08:07:39;13.50;;;7.35;;
63046;SDS011;62025;39.238;9.126;2022-12-07T08:10:06;10.95;;;6.65;;
63046;SDS011;62025;39.238;9.126;2022-12-07T08:12:35;12.02;;;6.43;;
63046;SDS011;62025;39.238;9.126;2022-12-07T08:15:23;13.63;;;7.10;;
63046;SDS011;62025;39.238;9.126;2022-12-07T08:17:50;14.25;;;6.60;;
63046;SDS011;62025;39.238;9.126;2022-12-07T08:20:16;13.50;;;5.95;;
63046;SDS011;62025;39.238;9.126;2022-12-07T08:22:42;13.82;;;5.82;;
63046;SDS011;62025;39.238;9.126;2022-12-07T08:25:07;18.13;;;5.90;;
63046;SDS011;62025;39.238;9.126;2022-12-07T08:27:33;13.82;;;5.78;;
63046;SDS011;62025;39.238;9.126;2022-12-07T08:29:59;12.43;;;5.60;;
63046;SDS011;62025;39.238;9.126;2022-12-07T08:32:25;10.93;;;6.00;;
63046;SDS011;62025;39.238;9.126;2022-12-07T08:34:51;13.40;;;5.88;;
63046;SDS011;62025;39.238;9.126;2022-12-07T08:37:17;8.80;;;5.10;;
63046;SDS011;62025;39.238;9.126;2022-12-07T08:39:43;12.43;;;5.22;;
63046;SDS011;62025;39.238;9.126;2022-12-07T08:42:09;13.60;;;5.40;;
63046;SDS011;62025;39.238;9.126;2022-12-07T08:44:36;10.65;;;4.88;;
63046;SDS011;62025;39.238;9.126;2022-12-07T08:47:02;10.32;;;5.13;;
63046;SDS011;62025;39.238;9.126;2022-12-07T08:49:36;11.73;;;5.30;;
63046;SDS011;62025;39.238;9.126;2022-12-07T08:52:06;15.60;;;5.63;;
63046;SDS011;62025;39.238;9.126;2022-12-07T08:54:33;11.70;;;5.28;;
63046;SDS011;62025;39.238;9.126;2022-12-07T08:57:01;10.73;;;5.30;;
63046;SDS011;62025;39.238;9.126;2022-12-07T08:59:29;14.40;;;5.38;;
63046;SDS011;62025;39.238;9.126;2022-12-07T09:01:56;10.88;;;5.55;;
63046;SDS011;62025;39.238;9.126;2022-12-07T09:04:22;16.63;;;5.50;;
63046;SDS011;62025;39.238;9.126;2022-12-07T09:06:48;12.82;;;5.50;;
63046;SDS011;62025;39.238;9.126;2022-12-07T09:09:14;10.38;;;5.38;;
63046;SDS011;62025;39.238;9.126;2022-12-07T09:11:40;10.23;;;5.47;;
63046;SDS011;62025;39.238;9.126;2022-12-07T09:14:07;12.52;;;7.18;;
63046;SDS011;62025;39.238;9.126;2022-12-07T09:16:33;16.02;;;6.97;;
63046;SDS011;62025;39.238;9.126;2022-12-07T09:18:59;16.45;;;6.90;;
63046;SDS011;62025;39.238;9.126;2022-12-07T09:21:25;18.65;;;6.35;;
63046;SDS011;62025;39.238;9.126;2022-12-07T09:23:50;15.93;;;7.53;;
63046;SDS011;62025;39.238;9.126;2022-12-07T09:26:16;14.70;;;8.15;;
63046;SDS011;62025;39.238;9.126;2022-12-07T09:28:42;18.17;;;9.85;;
63046;SDS011;62025;39.238;9.126;2022-12-07T09:31:08;19.35;;;10.82;;
63046;SDS011;62025;39.238;9.126;2022-12-07T09:33:34;18.77;;;10.20;;
63046;SDS011;62025;39.238;9.126;2022-12-07T09:36:00;17.48;;;10.50;;
63046;SDS011;62025;39.238;9.126;2022-12-07T09:38:28;17.20;;;10.02;;
63046;SDS011;62025;39.238;9.126;2022-12-07T09:40:54;15.02;;;8.63;;
63046;SDS011;62025;39.238;9.126;2022-12-07T09:43:21;20.42;;;8.88;;
63046;SDS011;62025;39.238;9.126;2022-12-07T09:45:51;18.75;;;8.45;;
63046;SDS011;62025;39.238;9.126;2022-12-07T09:48:30;15.57;;;8.48;;
63046;SDS011;62025;39.238;9.126;2022-12-07T09:51:02;17.67;;;8.30;;
63046;SDS011;62025;39.238;9.126;2022-12-07T09:53:56;16.70;;;7.78;;
63046;SDS011;62025;39.238;9.126;2022-12-07T09:56:24;17.48;;;7.75;;
63046;SDS011;62025;39.238;9.126;2022-12-07T09:58:52;13.73;;;6.90;;
63046;SDS011;62025;39.238;9.126;2022-12-07T10:01:28;11.88;;;5.93;;
63046;SDS011;62025;39.238;9.126;2022-12-07T10:04:10;19.40;;;5.07;;
63046;SDS011;62025;39.238;9.126;2022-12-07T10:06:39;18.27;;;5.68;;
63046;SDS011;62025;39.238;9.126;2022-12-07T10:09:13;10.77;;;5.82;;
63046;SDS011;62025;39.238;9.126;2022-12-07T10:12:08;11.18;;;5.72;;
63046;SDS011;62025;39.238;9.126;2022-12-07T10:14:36;11.98;;;5.30;;
63046;SDS011;62025;39.238;9.126;2022-12-07T10:17:30;9.88;;;5.70;;
63046;SDS011;62025;39.238;9.126;2022-12-07T10:20:26;9.82;;;5.18;;
63046;SDS011;62025;39.238;9.126;2022-12-07T10:22:56;11.50;;;5.40;;
63046;SDS011;62025;39.238;9.126;2022-12-07T10:25:32;14.45;;;5.57;;
63046;SDS011;62025;39.238;9.126;2022-12-07T10:28:02;12.60;;;4.88;;
63046;SDS011;62025;39.238;9.126;2022-12-07T10:36:24;12.45;;;4.15;;
63046;SDS011;62025;39.238;9.126;2022-12-07T10:39:10;8.13;;;3.20;;
63046;SDS011;62025;39.238;9.126;2022-12-07T10:41:54;10.65;;;3.35;;
63046;SDS011;62025;39.238;9.126;2022-12-07T10:44:29;10.48;;;2.90;;
63046;SDS011;62025;39.238;9.126;2022-12-07T11:00:59;12.82;;;3.13;;
63046;SDS011;62025;39.238;9.126;2022-12-07T11:09:47;11.10;;;3.00;;
63046;SDS011;62025;39.238;9.126;2022-12-07T11:15:33;8.43;;;3.42;;
63046;SDS011;62025;39.238;9.126;2022-12-07T11:18:17;13.95;;;3.60;;
63046;SDS011;62025;39.238;9.126;2022-12-07T11:20:52;7.50;;;3.05;;
63046;SDS011;62025;39.238;9.126;2022-12-07T11:27:01;10.18;;;3.58;;
63046;SDS011;62025;39.238;9.126;2022-12-07T11:38:10;10.93;;;3.78;;
63046;SDS011;62025;39.238;9.126;2022-12-07T11:40:46;10.68;;;3.50;;
63046;SDS011;62025;39.238;9.126;2022-12-07T11:43:21;9.07;;;3.00;;
63046;SDS011;62025;39.238;9.126;2022-12-07T11:45:58;6.07;;;2.45;;
63046;SDS011;62025;39.238;9.126;2022-12-07T11:48:38;11.93;;;2.75;;
63046;SDS011;62025;39.238;9.126;2022-12-07T11:51:14;13.80;;;2.70;;
63046;SDS011;62025;39.238;9.126;2022-12-07T11:53:51;10.85;;;2.60;;
63046;SDS011;62025;39.238;9.126;2022-12-07T11:56:23;7.95;;;2.22;;
63046;SDS011;62025;39.238;9.126;2022-12-07T11:59:12;6.20;;;2.55;;
63046;SDS011;62025;39.238;9.126;2022-12-07T12:01:48;5.35;;;2.08;;
63046;SDS011;62025;39.238;9.126;2022-12-07T12:04:51;7.03;;;2.88;;
63046;SDS011;62025;39.238;9.126;2022-12-07T12:07:26;10.00;;;3.03;;
63046;SDS011;62025;39.238;9.126;2022-12-07T12:10:04;8.03;;;2.83;;
63046;SDS011;62025;39.238;9.126;2022-12-07T12:15:40;5.55;;;2.83;;
63046;SDS011;62025;39.238;9.126;2022-12-07T12:19:04;10.50;;;3.20;;
63046;SDS011;62025;39.238;9.126;2022-12-07T12:22:10;7.95;;;2.92;;
63046;SDS011;62025;39.238;9.126;2022-12-07T12:24:42;14.65;;;2.90;;
63046;SDS011;62025;39.238;9.126;2022-12-07T12:27:25;9.07;;;2.97;;
63046;SDS011;62025;39.238;9.126;2022-12-07T12:30:00;13.73;;;3.20;;
63046;SDS011;62025;39.238;9.126;2022-12-07T12:32:48;8.40;;;2.35;;
63046;SDS011;62025;39.238;9.126;2022-12-07T12:38:39;7.38;;;2.60;;
63046;SDS011;62025;39.238;9.126;2022-12-07T12:40:54;6.43;;;2.30;;
63046;SDS011;62025;39.238;9.126;2022-12-07T13:02:27;13.38;;;6.18;;
63046;SDS011;62025;39.238;9.126;2022-12-07T13:31:39;20.13;;;9.07;;
63046;SDS011;62025;39.238;9.126;2022-12-07T13:34:33;11.77;;;5.00;;
63046;SDS011;62025;39.238;9.126;2022-12-07T13:37:02;14.02;;;4.82;;
63046;SDS011;62025;39.238;9.126;2022-12-07T13:44:51;12.32;;;3.03;;
63046;SDS011;62025;39.238;9.126;2022-12-07T13:50:22;10.35;;;4.05;;
63046;SDS011;62025;39.238;9.126;2022-12-07T13:52:57;18.45;;;5.25;;
63046;SDS011;62025;39.238;9.126;2022-12-07T13:55:25;17.63;;;7.07;;
63046;SDS011;62025;39.238;9.126;2022-12-07T13:57:52;20.73;;;7.72;;
63046;SDS011;62025;39.238;9.126;2022-12-07T14:00:29;19.47;;;8.70;;
63046;SDS011;62025;39.238;9.126;2022-12-07T14:02:59;24.10;;;8.32;;
63046;SDS011;62025;39.238;9.126;2022-12-07T14:05:26;20.58;;;10.48;;
63046;SDS011;62025;39.238;9.126;2022-12-07T14:10:32;32.38;;;12.63;;
63046;SDS011;62025;39.238;9.126;2022-12-07T14:16:01;19.63;;;8.23;;
63046;SDS011;62025;39.238;9.126;2022-12-07T14:18:40;27.92;;;9.93;;
63046;SDS011;62025;39.238;9.126;2022-12-07T14:23:36;26.23;;;10.85;;
63046;SDS011;62025;39.238;9.126;2022-12-07T14:26:08;19.45;;;9.90;;
63046;SDS011;62025;39.238;9.126;2022-12-07T14:28:43;14.07;;;7.88;;
63046;SDS011;62025;39.238;9.126;2022-12-07T14:31:11;13.23;;;6.80;;
63046;SDS011;62025;39.238;9.126;2022-12-07T14:33:43;9.48;;;5.85;;
63046;SDS011;62025;39.238;9.126;2022-12-07T14:36:10;16.83;;;5.20;;
63046;SDS011;62025;39.238;9.126;2022-12-07T14:38:39;10.10;;;4.78;;
63046;SDS011;62025;39.238;9.126;2022-12-07T14:41:06;10.52;;;5.28;;
63046;SDS011;62025;39.238;9.126;2022-12-07T14:43:59;11.48;;;4.55;;
63046;SDS011;62025;39.238;9.126;2022-12-07T14:46:25;10.90;;;4.22;;
63046;SDS011;62025;39.238;9.126;2022-12-07T14:48:51;17.10;;;4.95;;
63046;SDS011;62025;39.238;9.126;2022-12-07T14:51:17;12.27;;;5.05;;
63046;SDS011;62025;39.238;9.126;2022-12-07T14:53:45;14.25;;;4.80;;
63046;SDS011;62025;39.238;9.126;2022-12-07T14:56:15;12.25;;;5.55;;
63046;SDS011;62025;39.238;9.126;2022-12-07T14:58:41;19.33;;;7.70;;
63046;SDS011;62025;39.238;9.126;2022-12-07T15:01:07;14.07;;;8.05;;
63046;SDS011;62025;39.238;9.126;2022-12-07T15:03:33;9.32;;;6.32;;
63046;SDS011;62025;39.238;9.126;2022-12-07T15:06:00;14.32;;;7.53;;
63046;SDS011;62025;39.238;9.126;2022-12-07T15:08:26;23.02;;;12.38;;
63046;SDS011;62025;39.238;9.126;2022-12-07T15:10:52;14.75;;;9.32;;
63046;SDS011;62025;39.238;9.126;2022-12-07T15:13:18;14.55;;;8.65;;
63046;SDS011;62025;39.238;9.126;2022-12-07T15:16:03;13.60;;;7.25;;
63046;SDS011;62025;39.238;9.126;2022-12-07T15:18:30;13.35;;;8.20;;
63046;SDS011;62025;39.238;9.126;2022-12-07T15:20:56;13.32;;;6.80;;
63046;SDS011;62025;39.238;9.126;2022-12-07T15:23:23;8.93;;;4.80;;
63046;SDS011;62025;39.238;9.126;2022-12-07T15:25:48;7.63;;;3.42;;
63046;SDS011;62025;39.238;9.126;2022-12-07T15:28:14;11.73;;;3.40;;
63046;SDS011;62025;39.238;9.126;2022-12-07T15:30:41;12.75;;;4.20;;
63046;SDS011;62025;39.238;9.126;2022-12-07T15:33:09;7.88;;;4.03;;
63046;SDS011;62025;39.238;9.126;2022-12-07T15:35:43;16.95;;;5.05;;
63046;SDS011;62025;39.238;9.126;2022-12-07T15:38:10;9.98;;;4.00;;
63046;SDS011;62025;39.238;9.126;2022-12-07T15:40:36;7.40;;;3.60;;
63046;SDS011;62025;39.238;9.126;2022-12-07T15:43:02;11.48;;;4.25;;
63046;SDS011;62025;39.238;9.126;2022-12-07T15:45:28;12.13;;;4.28;;
63046;SDS011;62025;39.238;9.126;2022-12-07T15:47:54;13.45;;;4.93;;
63046;SDS011;62025;39.238;9.126;2022-12-07T15:50:21;5.50;;;3.70;;
63046;SDS011;62025;39.238;9.126;2022-12-07T15:52:47;8.75;;;3.75;;
63046;SDS011;62025;39.238;9.126;2022-12-07T15:55:13;9.50;;;3.70;;
63046;SDS011;62025;39.238;9.126;2022-12-07T15:57:39;8.07;;;4.20;;
63046;SDS011;62025;39.238;9.126;2022-12-07T16:00:06;8.45;;;4.03;;
63046;SDS011;62025;39.238;9.126;2022-12-07T16:02:34;7.72;;;4.00;;
63046;SDS011;62025;39.238;9.126;2022-12-07T16:05:01;11.45;;;4.75;;
63046;SDS011;62025;39.238;9.126;2022-12-07T16:07:27;9.85;;;4.30;;
63046;SDS011;62025;39.238;9.126;2022-12-07T16:09:53;12.77;;;6.10;;
63046;SDS011;62025;39.238;9.126;2022-12-07T16:12:19;18.13;;;8.13;;
63046;SDS011;62025;39.238;9.126;2022-12-07T16:14:45;29.67;;;14.18;;
63046;SDS011;62025;39.238;9.126;2022-12-07T16:17:11;45.53;;;20.05;;
63046;SDS011;62025;39.238;9.126;2022-12-07T16:19:40;55.35;;;23.02;;
63046;SDS011;62025;39.238;9.126;2022-12-07T16:22:06;45.75;;;19.98;;
63046;SDS011;62025;39.238;9.126;2022-12-07T16:24:32;40.33;;;19.25;;
63046;SDS011;62025;39.238;9.126;2022-12-07T16:26:58;42.45;;;18.83;;
63046;SDS011;62025;39.238;9.126;2022-12-07T16:29:24;39.78;;;17.17;;
63046;SDS011;62025;39.238;9.126;2022-12-07T16:31:50;38.75;;;16.77;;
63046;SDS011;62025;39.238;9.126;2022-12-07T16:34:17;36.78;;;15.18;;
63046;SDS011;62025;39.238;9.126;2022-12-07T16:36:43;35.38;;;13.10;;
63046;SDS011;62025;39.238;9.126;2022-12-07T16:39:10;33.40;;;13.32;;
63046;SDS011;62025;39.238;9.126;2022-12-07T16:41:36;33.25;;;11.43;;
63046;SDS011;62025;39.238;9.126;2022-12-07T16:44:06;21.65;;;9.82;;
63046;SDS011;62025;39.238;9.126;2022-12-07T16:46:35;16.15;;;8.32;;
63046;SDS011;62025;39.238;9.126;2022-12-07T16:49:02;18.98;;;7.45;;
63046;SDS011;62025;39.238;9.126;2022-12-07T16:51:28;13.50;;;7.38;;
63046;SDS011;62025;39.238;9.126;2022-12-07T16:53:55;14.75;;;7.72;;
63046;SDS011;62025;39.238;9.126;2022-12-07T16:56:22;16.10;;;7.40;;
63046;SDS011;62025;39.238;9.126;2022-12-07T16:58:48;16.55;;;7.57;;
63046;SDS011;62025;39.238;9.126;2022-12-07T17:01:18;14.45;;;8.48;;
63046;SDS011;62025;39.238;9.126;2022-12-07T17:03:49;11.55;;;7.22;;
63046;SDS011;62025;39.238;9.126;2022-12-07T17:06:22;15.13;;;7.97;;
63046;SDS011;62025;39.238;9.126;2022-12-07T17:08:52;11.07;;;7.40;;
63046;SDS011;62025;39.238;9.126;2022-12-07T17:11:21;13.02;;;7.18;;
63046;SDS011;62025;39.238;9.126;2022-12-07T17:13:49;17.55;;;7.93;;
63046;SDS011;62025;39.238;9.126;2022-12-07T17:16:34;14.95;;;9.27;;
63046;SDS011;62025;39.238;9.126;2022-12-07T17:19:05;23.35;;;11.05;;
63046;SDS011;62025;39.238;9.126;2022-12-07T17:21:33;16.15;;;10.07;;